Time;durP1;ratioP1;P1;durP2;ratioP2;P2;SDS_P1;SDS_P2;PMS_P1;PMS_P2;Temp;Humidity;BMP_temperature;BMP_pressure;BME280_temperature;BME280_humidity;BME280_pressure;Samples;Min_cycle;Max_cycle;Signal;HPM_P1;HPM_P2
2023/07/03 00:00:43;;;;;;;13.95;11.10;;;18.60;71.10;;;17.61;90.50;95753.75;5016944;28;20088;-66
2023/07/03 00:03:13;;;;;;;12.30;10.13;;;18.60;71.00;;;17.56;91.06;95757.16;5039297;28;20037;-66
2023/07/03 00:05:46;;;;;;;15.20;11.55;;;18.50;70.90;;;17.50;92.18;95755.47;5019885;28;20046;-67
2023/07/03 00:08:16;;;;;;;16.40;11.82;;;18.50;71.00;;;17.46;91.13;95757.00;5012156;28;20112;-67
2023/07/03 00:10:42;;;;;;;14.52;11.07;;;18.50;71.10;;;17.43;90.92;95752.16;5028795;28;20029;-67
2023/07/03 00:13:08;;;;;;;15.60;11.45;;;18.50;71.30;;;17.40;91.93;95752.63;5037076;28;20052;-66
2023/07/03 00:15:34;;;;;;;15.18;11.32;;;18.30;71.30;;;17.35;91.33;95749.88;5036810;28;20049;-66
2023/07/03 00:17:59;;;;;;;14.70;11.23;;;18.40;71.40;;;17.28;91.38;95749.22;5000502;28;20400;-66
2023/07/03 00:20:27;;;;;;;16.63;12.00;;;18.30;71.50;;;17.22;91.81;95745.69;5021014;28;20033;-67
2023/07/03 00:22:54;;;;;;;14.32;11.30;;;18.20;71.80;;;17.18;92.68;95749.03;5024054;28;20197;-67
2023/07/03 00:25:20;;;;;;;17.88;11.98;;;18.20;71.90;;;17.14;92.64;95757.50;5015466;28;20439;-66
2023/07/03 00:27:46;;;;;;;16.05;11.48;;;18.10;72.10;;;17.11;93.27;95754.50;5016728;28;20026;-67
2023/07/03 00:30:12;;;;;;;16.58;12.85;;;18.10;72.00;;;17.07;93.61;95756.03;5008364;28;20036;-66
2023/07/03 00:32:38;;;;;;;16.92;11.93;;;18.10;71.90;;;17.04;93.20;95759.16;5022186;28;20393;-67
2023/07/03 00:35:04;;;;;;;15.98;11.95;;;18.10;72.00;;;17.01;93.73;95765.75;5011461;28;20036;-67
2023/07/03 00:37:30;;;;;;;16.95;12.05;;;18.00;72.10;;;16.97;93.81;95761.94;5040749;28;20032;-67
2023/07/03 00:39:56;;;;;;;16.08;12.68;;;18.00;72.10;;;16.94;93.06;95758.97;5012801;28;20431;-66
2023/07/03 00:42:28;;;;;;;17.98;12.10;;;17.90;72.00;;;16.91;93.71;95760.25;5042393;28;20044;-66
2023/07/03 00:44:54;;;;;;;20.73;12.95;;;17.90;72.10;;;16.88;93.42;95759.91;5016502;28;20034;-68
2023/07/03 00:47:20;;;;;;;17.60;12.68;;;17.80;71.80;;;16.84;92.24;95760.38;5001659;28;20033;-67
2023/07/03 00:49:46;;;;;;;19.35;12.77;;;17.70;71.50;;;16.80;91.83;95758.44;4995142;28;20052;-67
2023/07/03 00:52:11;;;;;;;16.55;11.90;;;17.70;71.40;;;16.76;92.20;95757.31;5016825;28;20087;-67
2023/07/03 00:54:38;;;;;;;18.42;12.43;;;17.60;71.40;;;16.73;91.55;95763.06;5015698;28;20057;-67
2023/07/03 00:57:05;;;;;;;16.00;13.00;;;17.70;71.10;;;16.69;92.01;95764.59;5009764;28;20503;-66
2023/07/03 00:59:32;;;;;;;17.55;12.80;;;17.70;71.30;;;16.67;91.52;95767.47;4993546;28;20037;-66
2023/07/03 01:02:18;;;;;;;19.30;13.88;;;17.70;71.10;;;16.63;92.55;95768.97;5009782;28;20130;-67
2023/07/03 01:05:19;;;;;;;15.93;12.57;;;17.60;71.30;;;16.59;92.06;95765.16;5016008;28;20124;-66
2023/07/03 01:07:44;;;;;;;19.13;12.57;;;17.60;71.00;;;16.57;91.04;95763.78;5037356;28;20029;-66
2023/07/03 01:10:17;;;;;;;19.27;13.82;;;17.60;70.80;;;16.56;90.67;95760.34;5011349;28;20032;-66
2023/07/03 01:12:45;;;;;;;22.63;13.07;;;17.60;70.80;;;16.53;90.80;95763.47;5000637;28;20029;-66
2023/07/03 01:15:15;;;;;;;17.42;12.60;;;17.60;70.70;;;16.52;91.20;95765.31;5013781;28;20029;-66
2023/07/03 01:17:41;;;;;;;18.10;13.40;;;17.60;71.10;;;16.50;90.88;95746.13;4999369;28;20112;-66
2023/07/03 01:20:11;;;;;;;19.08;13.60;;;17.60;70.70;;;16.49;91.87;95744.50;5001921;28;20044;-68
2023/07/03 01:23:02;;;;;;;21.48;12.95;;;17.60;71.10;;;16.51;92.84;95746.94;5001052;28;20401;-66
2023/07/03 01:25:28;;;;;;;;;;;17.60;71.00;;;16.49;93.09;95749.81;5011423;28;20029;-68
2023/07/03 01:27:54;;;;;;;19.70;13.82;;;17.60;70.90;;;16.49;90.86;95743.69;5018866;28;19991;-67
2023/07/03 01:30:20;;;;;;;18.40;12.52;;;17.60;70.70;;;16.49;91.26;95736.53;4999652;28;20036;-66
2023/07/03 01:32:48;;;;;;;19.95;13.20;;;17.60;70.90;;;16.48;91.47;95745.56;4998059;28;20026;-66
2023/07/03 01:35:14;;;;;;;19.65;13.10;;;17.60;70.60;;;16.46;91.04;95746.81;5015173;28;20061;-67
2023/07/03 01:37:42;;;;;;;19.13;13.98;;;17.60;70.60;;;16.46;90.40;95746.81;5001429;28;20527;-66
2023/07/03 01:40:09;;;;;;;19.38;13.38;;;17.60;70.30;;;16.45;90.92;95759.28;4986775;28;20036;-67
2023/07/03 01:42:37;;;;;;;19.95;14.02;;;17.60;70.60;;;16.44;90.48;95759.53;4996729;28;20113;-67
2023/07/03 01:45:04;;;;;;;18.90;13.80;;;17.50;70.30;;;16.42;90.61;95770.38;5018172;28;20075;-67
2023/07/03 01:47:30;;;;;;;17.83;13.35;;;17.50;70.50;;;16.41;90.46;95765.31;5038668;28;20562;-67
2023/07/03 01:49:56;;;;;;;20.40;13.38;;;17.50;70.00;;;16.41;90.35;95773.28;5015463;28;20116;-67
2023/07/03 01:52:37;;;;;;;18.58;13.25;;;17.50;70.30;;;16.38;90.98;95782.50;5016750;28;20053;-67
2023/07/03 01:55:06;;;;;;;20.13;14.15;;;17.50;70.00;;;16.38;90.23;95777.22;5016589;28;20029;-66
2023/07/03 01:58:03;;;;;;;19.48;14.40;;;17.50;70.00;;;16.39;90.51;95770.06;4999975;28;20022;-67
2023/07/03 02:00:48;;;;;;;19.27;13.85;;;17.50;69.70;;;16.37;89.52;95770.28;5018446;28;20034;-66
2023/07/03 02:03:24;;;;;;;19.83;13.82;;;17.50;69.70;;;16.38;89.72;95769.25;5018856;28;20366;-68
2023/07/03 02:05:50;;;;;;;19.00;13.38;;;17.50;69.60;;;16.33;89.17;95763.84;5002720;28;20022;-67
2023/07/03 02:08:16;;;;;;;23.50;14.27;;;17.40;70.00;;;16.33;89.78;95763.03;4997207;28;20032;-67
2023/07/03 02:10:41;;;;;;;18.63;13.63;;;17.50;70.10;;;16.32;89.72;95762.22;5016803;28;20129;-66
2023/07/03 02:13:07;;;;;;;20.50;14.70;;;17.50;70.10;;;16.29;89.94;95767.97;5036820;28;20026;-68
2023/07/03 02:15:33;;;;;;;20.20;13.73;;;17.40;70.20;;;16.24;89.62;95770.50;5015949;28;20080;-67
2023/07/03 02:17:59;;;;;;;19.33;14.60;;;17.30;69.80;;;16.20;89.40;95767.53;5009303;28;20084;-66
2023/07/03 02:20:24;;;;;;;19.98;14.02;;;17.30;69.90;;;16.16;89.79;95779.66;5016880;28;20029;-66
2023/07/03 02:22:50;;;;;;;21.05;14.45;;;17.30;69.90;;;16.14;89.91;95779.06;5038508;28;20045;-66
2023/07/03 02:25:16;;;;;;;20.58;14.80;;;17.20;69.90;;;16.10;89.77;95779.78;5035335;28;20045;-65
2023/07/03 02:27:43;;;;;;;21.85;15.43;;;17.10;70.20;;;16.06;89.73;95778.59;5016433;28;20501;-68
2023/07/03 02:30:09;;;;;;;19.63;14.23;;;17.10;70.40;;;16.04;90.02;95778.81;4995562;28;20025;-65
2023/07/03 02:32:36;;;;;;;21.02;14.20;;;17.10;70.50;;;16.01;89.95;95770.53;5024103;28;20033;-69
2023/07/03 02:35:02;;;;;;;21.13;14.57;;;17.10;70.50;;;16.00;90.22;95768.91;4998960;28;20040;-67
2023/07/03 02:37:28;;;;;;;19.58;14.00;;;17.10;70.50;;;15.99;90.38;95769.94;5006903;28;20486;-67
2023/07/03 02:39:53;;;;;;;20.70;14.57;;;17.10;70.70;;;15.97;91.35;95769.38;5033222;28;20596;-66
2023/07/03 02:42:19;;;;;;;20.05;14.43;;;17.10;70.90;;;15.97;90.99;95775.50;5019528;28;20427;-67
2023/07/03 02:44:45;;;;;;;22.85;15.15;;;17.10;70.60;;;15.99;91.26;95768.09;5011823;28;20037;-66
2023/07/03 02:47:11;;;;;;;20.13;14.38;;;17.10;70.60;;;15.99;91.36;95777.91;5009650;28;20138;-67
2023/07/03 02:49:36;;;;;;;20.55;14.40;;;17.10;70.90;;;15.98;91.14;95771.78;5036171;28;20760;-67
2023/07/03 02:52:02;;;;;;;19.67;14.95;;;17.10;70.80;;;15.97;91.62;95769.38;5022448;28;20075;-67
2023/07/03 02:54:28;;;;;;;19.25;14.45;;;17.10;70.80;;;15.99;91.29;95767.28;5006118;28;20071;-66
2023/07/03 02:56:54;;;;;;;22.40;15.43;;;17.20;70.70;;;16.00;90.32;95768.91;5033266;28;20056;-67
2023/07/03 02:59:20;;;;;;;21.42;14.52;;;17.10;70.30;;;15.98;89.87;95774.44;5018524;28;20321;-67
2023/07/03 03:01:45;;;;;;;22.48;15.45;;;17.10;69.60;;;15.95;89.71;95777.56;5013716;28;20580;-67
2023/07/03 03:04:11;;;;;;;24.05;14.38;;;17.10;69.40;;;15.93;89.34;95780.44;5032842;28;20440;-66
2023/07/03 03:06:38;;;;;;;20.67;14.77;;;17.10;69.30;;;15.88;88.68;95777.69;5017757;28;20034;-67
2023/07/03 03:09:05;;;;;;;26.73;19.23;;;16.90;69.00;;;15.85;88.41;95782.66;5020126;28;20447;-67
2023/07/03 03:11:30;;;;;;;25.13;18.45;;;16.90;69.40;;;15.82;88.80;95783.09;5023569;28;20129;-67
2023/07/03 03:13:56;;;;;;;26.85;19.20;;;16.90;69.60;;;15.81;88.93;95784.94;5031031;28;20037;-66
2023/07/03 03:16:23;;;;;;;22.92;17.00;;;16.90;69.80;;;15.78;89.36;95781.94;5032012;28;20032;-66
2023/07/03 03:18:50;;;;;;;29.10;20.58;;;16.90;70.40;;;15.77;90.50;95789.06;4990424;28;20029;-67
2023/07/03 03:21:16;;;;;;;28.50;21.38;;;16.90;70.50;;;15.73;90.71;95795.88;5014165;28;20120;-67
2023/07/03 03:23:41;;;;;;;26.63;18.52;;;16.90;70.80;;;15.73;90.71;95793.22;5014614;28;20571;-68
2023/07/03 03:26:07;;;;;;;21.95;15.73;;;16.90;70.80;;;15.69;90.31;95786.78;5019560;28;20076;-66
2023/07/03 03:28:33;;;;;;;21.42;15.70;;;16.90;70.40;;;15.72;91.01;95791.63;5030527;28;20393;-67
2023/07/03 03:30:59;;;;;;;19.83;15.02;;;16.90;70.80;;;15.73;91.54;95798.53;5010518;28;20413;-67
2023/07/03 03:33:25;;;;;;;23.42;17.95;;;16.90;70.60;;;15.73;91.22;95793.22;5017601;28;20043;-66
2023/07/03 03:35:51;;;;;;;29.65;22.08;;;17.00;70.60;;;15.73;91.74;95787.91;5017098;28;20112;-67
2023/07/03 03:38:16;;;;;;;32.90;24.70;;;17.00;70.60;;;15.77;91.36;95789.06;5025993;28;20563;-67
2023/07/03 03:40:56;;;;;;;34.00;21.75;;;17.00;70.70;;;15.77;91.29;95783.78;5039631;28;20124;-67
2023/07/03 03:43:22;;;;;;;46.60;35.20;;;17.00;70.20;;;15.79;91.33;95784.34;5008601;28;20030;-67
2023/07/03 03:46:01;;;;;;;33.08;23.65;;;17.10;70.50;;;15.84;91.47;95775.69;5031990;28;20053;-68
2023/07/03 03:48:27;;;;;;;30.58;23.95;;;17.10;70.00;;;15.87;91.38;95781.38;5019213;28;20458;-68
2023/07/03 03:50:53;;;;;;;24.10;16.35;;;17.20;69.90;;;15.92;90.07;95778.84;5012783;28;20121;-68
2023/07/03 03:53:19;;;;;;;26.30;16.42;;;17.10;69.00;;;15.89;90.50;95776.66;5017795;28;20036;-68
2023/07/03 03:55:49;;;;;;;25.60;15.55;;;17.20;69.10;;;15.98;88.86;95781.59;5001362;28;20080;-68
2023/07/03 03:58:16;;;;;;;22.95;15.48;;;17.30;68.40;;;16.00;88.43;95779.53;5005217;28;20041;-68
2023/07/03 04:00:43;;;;;;;23.08;14.68;;;17.30;68.30;;;16.01;87.96;95791.75;5019486;28;20501;-67
2023/07/03 04:03:08;;;;;;;26.30;15.02;;;17.30;67.50;;;16.04;87.22;95778.81;5027531;28;20091;-67
2023/07/03 04:05:34;;;;;;;23.83;15.30;;;17.40;67.80;;;16.07;87.69;95783.69;5003381;28;20108;-68
2023/07/03 04:08:01;;;;;;;20.50;14.57;;;17.40;67.70;;;16.08;87.87;95790.63;4999715;28;20105;-68
2023/07/03 04:10:26;;;;;;;37.33;26.55;;;17.50;68.80;;;16.14;88.54;95786.22;5028275;28;20055;-67
2023/07/03 04:12:52;;;;;;;48.88;37.00;;;17.50;68.70;;;16.16;87.35;95786.81;5008503;28;20525;-67
2023/07/03 04:15:18;;;;;;;25.80;16.48;;;17.50;67.90;;;16.16;87.07;95784.16;5027311;28;20517;-67
2023/07/03 04:17:44;;;;;;;21.40;15.30;;;17.50;67.10;;;16.19;85.79;95783.69;5041393;28;20485;-68
2023/07/03 04:20:13;;;;;;;22.80;15.10;;;17.60;66.70;;;16.20;85.86;95774.69;5005235;28;20120;-68
2023/07/03 04:22:42;;;;;;;21.48;15.68;;;17.60;66.50;;;16.21;85.12;95784.25;5034831;28;20731;-69
2023/07/03 04:25:11;;;;;;;25.48;14.35;;;17.60;66.40;;;16.24;84.95;95789.09;5027365;28;20049;-68
2023/07/03 04:27:37;;;;;;;23.20;14.68;;;17.60;66.10;;;16.25;84.86;95788.06;5003161;28;20127;-68
2023/07/03 04:30:04;;;;;;;23.35;15.77;;;17.60;66.40;;;16.27;84.50;95785.97;5026914;28;20036;-68
2023/07/03 04:32:30;;;;;;;22.85;14.93;;;17.60;66.00;;;16.32;84.54;95788.75;5045876;28;20026;-67
2023/07/03 04:34:57;;;;;;;23.73;14.45;;;17.70;66.20;;;16.36;84.79;95789.91;5007094;28;20037;-68
2023/07/03 04:37:26;;;;;;;23.42;15.18;;;17.70;66.00;;;16.39;84.01;95786.78;5022874;28;20040;-69
2023/07/03 04:39:53;;;;;;;25.23;15.95;;;17.80;65.80;;;16.43;84.18;95792.44;5046753;28;20029;-68
2023/07/03 04:42:20;;;;;;;24.58;15.07;;;17.80;65.60;;;16.47;84.29;95790.91;5046637;28;20053;-68
2023/07/03 04:44:51;;;;;;;24.00;15.45;;;17.90;65.70;;;16.52;84.64;95794.50;4999706;28;20029;-67
2023/07/03 04:47:17;;;;;;;23.67;15.05;;;18.00;65.80;;;16.55;83.43;95793.22;5008459;28;20025;-68
2023/07/03 04:49:44;;;;;;;26.05;16.02;;;18.00;65.20;;;16.57;83.46;95795.66;5025370;28;20400;-68
2023/07/03 04:52:10;;;;;;;23.55;14.77;;;18.00;65.20;;;16.57;84.09;95796.47;5017104;28;20037;-68
2023/07/03 04:54:37;;;;;;;21.15;15.40;;;18.00;66.50;;;16.57;84.32;95798.31;5050239;28;20032;-68
2023/07/03 04:57:03;;;;;;;23.35;15.40;;;17.90;66.30;;;16.58;84.88;95794.63;5004913;28;20026;-68
2023/07/03 04:59:29;;;;;;;21.60;14.57;;;17.90;66.60;;;16.60;84.39;95795.19;5025358;28;20037;-69
2023/07/03 05:01:54;;;;;;;19.98;14.48;;;18.00;66.20;;;16.64;84.32;95797.13;4999484;28;20045;-68
2023/07/03 05:04:20;;;;;;;20.17;14.50;;;18.10;65.60;;;16.68;84.10;95803.63;5048737;28;20033;-68
2023/07/03 05:06:47;;;;;;;22.27;14.70;;;18.10;65.70;;;16.73;84.00;95797.59;5000357;28;20053;-68
2023/07/03 05:09:12;;;;;;;21.90;14.65;;;18.20;65.60;;;16.80;84.54;95803.59;5013463;28;20753;-67
2023/07/03 05:11:38;;;;;;;26.27;19.75;;;18.40;66.10;;;16.86;85.10;95794.69;5026774;28;20040;-68
2023/07/03 05:14:04;;;;;;;24.60;15.70;;;18.50;66.20;;;16.93;84.61;95799.84;5031993;28;20515;-68
2023/07/03 05:16:32;;;;;;;25.45;14.75;;;18.50;65.40;;;16.94;83.99;95796.97;5030864;28;20052;-68
2023/07/03 05:18:58;;;;;;;19.98;14.00;;;18.40;65.60;;;16.95;84.30;95803.88;5019436;28;20072;-68
2023/07/03 05:21:24;;;;;;;22.00;14.63;;;18.40;65.90;;;16.99;84.80;95806.91;4982057;28;20508;-67
2023/07/03 05:23:50;;;;;;;22.58;14.45;;;18.40;66.20;;;17.00;84.74;95808.50;5024997;28;20028;-67
2023/07/03 05:26:15;;;;;;;22.58;15.10;;;18.50;66.40;;;17.02;84.29;95809.88;5030216;28;20036;-68
2023/07/03 05:28:41;;;;;;;20.48;14.10;;;18.50;65.90;;;17.06;84.38;95805.72;5032024;28;20588;-68
2023/07/03 05:31:07;;;;;;;20.50;14.68;;;18.60;66.00;;;17.10;84.50;95806.84;5031464;28;20511;-68
2023/07/03 05:33:32;;;;;;;26.60;15.57;;;18.70;65.50;;;17.15;85.37;95809.59;5048232;28;20500;-68
2023/07/03 05:36:00;;;;;;;22.42;14.15;;;18.70;65.60;;;17.22;85.58;95811.34;5031575;28;20511;-68
2023/07/03 05:38:27;;;;;;;22.10;14.35;;;18.70;65.70;;;17.25;84.37;95808.19;4997119;28;20075;-68
2023/07/03 05:40:54;;;;;;;23.50;14.60;;;18.90;65.40;;;17.30;85.22;95806.44;5014656;28;20029;-68
2023/07/03 05:43:20;;;;;;;25.27;15.07;;;19.00;65.50;;;17.38;84.79;95814.00;5025671;28;20091;-68
2023/07/03 05:45:47;;;;;;;19.40;14.13;;;19.00;65.30;;;17.43;85.48;95822.09;5006718;28;20501;-68
2023/07/03 05:48:13;;;;;;;25.45;14.93;;;19.10;65.40;;;17.48;84.34;95820.56;5020172;28;20120;-68
2023/07/03 05:50:38;;;;;;;22.33;14.93;;;19.00;64.90;;;17.49;84.07;95808.88;5027192;28;20098;-69
2023/07/03 05:53:04;;;;;;;21.42;13.93;;;19.00;65.20;;;17.52;84.73;95824.38;5031215;28;20048;-69
2023/07/03 05:55:30;;;;;;;26.52;15.05;;;19.10;65.60;;;17.53;84.72;95824.13;5041563;28;20029;-68
2023/07/03 05:57:56;;;;;;;29.02;15.45;;;19.10;64.90;;;17.59;84.48;95825.00;5017404;28;20025;-68
2023/07/03 06:00:23;;;;;;;22.70;14.60;;;19.10;64.70;;;17.66;84.01;95826.50;5028840;28;20451;-68
2023/07/03 06:02:54;;;;;;;25.40;14.40;;;19.30;64.50;;;17.74;83.66;95834.09;5044957;28;20017;-68
2023/07/03 06:05:20;;;;;;;;;;;19.40;64.50;;;17.81;83.03;95827.81;5030658;28;20106;-68
2023/07/03 06:07:46;;;;;;;20.45;13.57;;;19.50;63.50;;;17.85;83.01;95834.25;5031282;28;20546;-68
2023/07/03 06:10:12;;;;;;;24.23;13.82;;;19.40;63.30;;;17.91;81.33;95828.81;5016732;28;20033;-69
2023/07/03 06:12:38;;;;;;;21.48;13.93;;;19.60;62.80;;;18.00;81.33;95834.53;5030666;28;20031;-68
2023/07/03 06:15:05;;;;;;;20.80;13.45;;;19.70;61.70;;;18.14;80.48;95830.50;5001060;28;20116;-68
2023/07/03 06:17:31;;;;;;;21.58;13.02;;;20.00;61.40;;;18.29;80.24;95841.34;5038938;28;20036;-68
2023/07/03 06:19:57;;;;;;;23.23;14.38;;;20.20;61.10;;;18.47;80.25;95832.31;5045229;28;20408;-68
2023/07/03 06:22:22;;;;;;;17.98;12.90;;;20.40;60.20;;;18.66;79.30;95832.88;4998831;28;20681;-68
2023/07/03 06:24:48;;;;;;;20.65;13.45;;;20.70;59.30;;;18.90;78.51;95831.59;5026573;28;20126;-67
2023/07/03 06:27:14;;;;;;;23.83;13.70;;;21.00;58.70;;;19.12;77.09;95830.78;5041783;22;20110;-64
2023/07/03 06:29:40;;;;;;;22.95;13.75;;;21.00;57.30;;;19.24;76.00;95826.13;5000111;28;20402;-62
2023/07/03 06:32:08;;;;;;;24.73;13.75;;;21.10;57.00;;;19.41;73.97;95816.16;5024939;28;20075;-62
2023/07/03 06:34:33;;;;;;;22.42;12.57;;;21.50;56.00;;;19.61;73.26;95815.59;5005495;28;20036;-62
2023/07/03 06:37:00;;;;;;;23.90;12.55;;;21.70;54.50;;;19.81;72.46;95814.97;5015972;28;20397;-62
2023/07/03 06:39:27;;;;;;;23.48;12.80;;;22.00;54.00;;;20.04;71.64;95813.84;5023290;28;20508;-62
2023/07/03 06:41:52;;;;;;;22.15;11.93;;;22.30;53.60;;;20.23;70.02;95817.72;5007868;28;20509;-62
2023/07/03 06:44:19;;;;;;;23.75;12.90;;;22.60;51.40;;;20.42;68.07;95804.78;4996779;28;20079;-62
2023/07/03 06:46:45;;;;;;;24.02;11.90;;;22.60;50.10;;;20.60;67.07;95809.72;5030323;28;20029;-62
2023/07/03 06:49:11;;;;;;;23.17;12.75;;;22.90;49.50;;;20.77;65.75;95799.63;5047476;28;20100;-62
2023/07/03 06:51:37;;;;;;;19.33;11.40;;;23.10;48.40;;;20.95;64.40;95806.38;5023606;28;20056;-62
2023/07/03 06:54:03;;;;;;;20.92;11.43;;;23.30;47.80;;;21.09;63.38;95801.38;5030073;28;20029;-62
2023/07/03 06:56:29;;;;;;;22.15;12.70;;;23.40;48.10;;;21.29;63.28;95801.47;5010950;28;20114;-62
2023/07/03 06:58:55;;;;;;;21.88;11.38;;;23.70;47.70;;;21.45;62.19;95790.78;5009628;28;20037;-62
2023/07/03 07:01:23;;;;;;;21.33;11.40;;;23.90;46.00;;;21.56;58.96;95781.72;5027988;28;20626;-62
2023/07/03 07:03:49;;;;;;;19.80;11.25;;;23.90;44.40;;;21.66;59.52;95792.44;5029578;28;20135;-62
2023/07/03 07:06:27;;;;;;;17.42;11.40;;;24.10;45.10;;;21.83;58.49;95784.16;5015326;28;20774;-62
2023/07/03 07:08:53;;;;;;;20.70;10.68;;;24.40;44.60;;;22.05;59.63;95797.31;5002656;28;20029;-62
2023/07/03 07:11:27;;;;;;;17.58;10.88;;;24.80;44.70;;;22.28;57.47;95783.34;5040073;28;20044;-62
2023/07/03 07:13:54;;;;;;;20.35;10.80;;;25.20;44.00;;;22.51;58.71;95788.13;5000244;28;20037;-62
2023/07/03 07:16:21;;;;;;;19.35;11.20;;;25.50;43.40;;;22.82;57.73;95782.69;5016954;28;20041;-62
2023/07/03 07:18:57;;;;;;;19.65;10.90;;;26.00;42.70;;;23.12;55.37;95771.84;4991525;28;20025;-62
2023/07/03 07:21:23;;;;;;;20.90;11.70;;;26.30;43.00;;;23.39;56.20;95784.84;5045109;28;20489;-63
2023/07/03 07:24:00;;;;;;;18.70;10.55;;;26.60;41.30;;;23.55;50.23;95742.63;4993799;28;20060;-63
2023/07/03 07:26:33;;;;;;;19.10;11.27;;;26.40;39.50;;;23.63;51.25;95744.72;5000462;28;20026;-63
2023/07/03 07:29:00;;;;;;;21.23;10.75;;;26.20;40.30;;;23.65;52.45;95764.03;4996974;28;20029;-63
2023/07/03 07:31:26;;;;;;;18.98;10.95;;;25.90;40.30;;;23.63;52.22;95758.16;5014085;28;20029;-63
2023/07/03 07:33:52;;;;;;;16.10;10.27;;;25.80;41.40;;;23.57;51.57;95753.91;5015983;28;20105;-63
2023/07/03 07:36:20;;;;;;;22.35;10.73;;;25.60;40.30;;;23.42;50.32;95740.53;5001100;28;20401;-61
2023/07/03 07:38:45;;;;;;;17.40;11.98;;;25.20;41.10;;;23.32;50.82;95740.63;5047206;28;20029;-61
2023/07/03 07:41:11;;;;;;;16.33;10.50;;;25.40;40.50;;;23.37;50.62;95735.22;4996832;28;20037;-61
2023/07/03 07:43:37;;;;;;;19.73;10.98;;;25.70;39.40;;;23.42;49.65;95729.81;5006011;28;20038;-62
2023/07/03 07:46:03;;;;;;;18.33;10.98;;;25.70;39.40;;;23.53;50.10;95728.63;4996047;28;20084;-62
2023/07/03 07:48:29;;;;;;;20.15;11.13;;;26.10;40.20;;;23.74;50.45;95737.38;4996313;28;20635;-62
2023/07/03 07:50:55;;;;;;;14.80;10.55;;;26.50;40.20;;;24.02;49.96;95735.81;5046861;28;20171;-62
2023/07/03 07:53:21;;;;;;;21.48;10.07;;;26.90;39.30;;;24.18;49.17;95739.94;5039648;28;20437;-62
2023/07/03 07:55:46;;;;;;;20.67;9.80;;;26.40;39.20;;;24.19;49.40;95741.53;5043604;28;20087;-62
2023/07/03 07:58:12;;;;;;;23.27;11.15;;;26.30;40.80;;;24.23;48.93;95737.22;4999306;28;20041;-62
2023/07/03 08:00:40;;;;;;;21.02;11.20;;;26.40;40.30;;;24.21;48.15;95736.69;5013159;28;20091;-63
2023/07/03 08:03:06;;;;;;;19.63;11.65;;;26.10;39.20;;;24.20;48.32;95732.41;5023378;28;20393;-62
2023/07/03 08:05:31;;;;;;;17.15;10.70;;;26.30;40.00;;;24.25;48.53;95735.06;5027305;28;20036;-63
2023/07/03 08:07:58;;;;;;;22.02;11.35;;;26.40;40.50;;;24.25;48.45;95734.25;5002351;28;20028;-62
2023/07/03 08:10:24;;;;;;;17.25;11.13;;;26.20;40.10;;;24.21;48.91;95734.00;5021563;28;20047;-62
2023/07/03 08:12:52;;;;;;;22.30;11.52;;;26.20;41.10;;;24.20;49.40;95734.28;5029004;28;20033;-62
2023/07/03 08:15:18;;;;;;;20.17;10.40;;;26.10;41.60;;;24.15;48.41;95732.44;5045566;28;20120;-62
2023/07/03 08:17:45;;;;;;;16.98;8.25;;;26.00;41.10;;;24.07;48.56;95738.44;5026385;28;20032;-62
2023/07/03 08:20:12;;;;;;;22.92;9.88;;;25.70;39.90;;;24.02;47.82;95739.31;5019409;28;20037;-62
2023/07/03 08:22:38;;;;;;;13.10;8.48;;;25.70;40.60;;;23.97;47.35;95731.25;5043752;28;20021;-62
2023/07/03 08:25:05;;;;;;;14.55;9.43;;;25.70;40.30;;;23.95;47.66;95735.31;5016455;28;20068;-62
2023/07/03 08:27:31;;;;;;;19.52;8.60;;;25.80;40.80;;;23.91;48.30;95735.09;5047448;28;20029;-62
2023/07/03 08:29:56;;;;;;;17.65;10.48;;;25.80;41.20;;;23.92;48.63;95746.63;5028301;28;20029;-62
2023/07/03 08:32:23;;;;;;;17.02;10.27;;;25.90;41.40;;;23.95;48.78;95743.38;5026063;28;20040;-62
2023/07/03 08:34:50;;;;;;;16.58;8.60;;;26.10;41.00;;;23.95;48.62;95741.50;5032770;28;20036;-62
2023/07/03 08:37:16;;;;;;;13.73;8.68;;;25.90;41.00;;;23.95;48.00;95735.31;5000155;28;20034;-62
2023/07/03 08:39:41;;;;;;;15.45;9.35;;;25.60;40.60;;;23.95;47.44;95740.69;5000861;28;20121;-62
2023/07/03 08:42:23;;;;;;;18.10;8.93;;;25.80;40.80;;;24.03;46.97;95726.66;5002240;28;20108;-62
2023/07/03 08:44:49;;;;;;;16.55;8.35;;;26.10;41.00;;;24.10;47.52;95733.31;5033048;28;20034;-62
2023/07/03 08:47:20;;;;;;;15.40;8.98;;;26.30;40.30;;;24.14;46.92;95734.34;5031636;28;20037;-62
2023/07/03 08:49:46;;;;;;;10.63;6.93;;;26.10;40.40;;;24.18;47.16;95726.50;5012491;28;20488;-62
2023/07/03 08:52:18;;;;;;;11.73;6.65;;;26.20;39.40;;;24.24;44.90;95706.56;5026871;28;20041;-62
2023/07/03 08:54:44;;;;;;;11.93;6.57;;;26.40;38.20;;;24.45;46.19;95709.88;4997944;28;20504;-62
2023/07/03 08:57:10;;;;;;;10.82;6.63;;;27.10;37.70;;;24.83;45.41;95718.03;4982962;28;20091;-62
2023/07/03 08:59:36;;;;;;;12.02;6.75;;;28.00;36.40;;;25.29;45.67;95710.16;4997789;28;20036;-62
2023/07/03 09:02:36;;;;;;;10.75;6.68;;;28.70;36.00;;;25.86;41.79;95681.28;5017160;28;20419;-63
2023/07/03 09:05:30;;;;;;;11.27;6.45;;;29.10;34.60;;;26.34;41.31;95680.94;5013462;28;20101;-63
2023/07/03 09:08:01;;;;;;;12.07;7.93;;;29.60;33.80;;;26.64;41.15;95674.97;5026438;28;20029;-63
2023/07/03 09:10:43;;;;;;;;;;;29.50;33.20;;;26.80;39.34;95662.78;5000936;28;20040;-63
2023/07/03 09:13:39;;;;;;;13.52;7.43;;;29.50;33.40;;;27.10;39.91;95682.91;5022220;28;20383;-63
2023/07/03 09:16:13;;;;;;;13.35;7.50;;;30.00;33.60;;;27.43;39.69;95680.03;5017068;28;20036;-63
2023/07/03 09:18:49;;;;;;;14.40;7.65;;;30.50;33.00;;;27.43;38.71;95670.03;5003193;28;20083;-63
2023/07/03 09:21:15;;;;;;;14.90;7.85;;;29.60;33.50;;;27.46;41.34;95696.44;5029932;28;20427;-63
2023/07/03 09:24:18;;;;;;;17.25;8.98;;;30.00;34.00;;;27.63;38.92;95673.38;5030637;28;20034;-63
2023/07/03 09:27:10;;;;;;;16.10;8.45;;;30.10;34.50;;;27.37;38.57;95675.84;5017467;28;20031;-63
2023/07/03 09:29:36;;;;;;;13.75;8.35;;;29.10;34.30;;;27.42;40.50;95703.56;5009486;28;20064;-63
2023/07/03 09:32:01;;;;;;;20.27;9.05;;;30.00;34.00;;;27.40;40.36;95702.25;5004698;28;20490;-63
2023/07/03 09:34:27;;;;;;;13.70;8.38;;;29.50;34.30;;;27.47;40.10;95699.94;5000788;28;20029;-63
2023/07/03 09:37:03;;;;;;;17.08;8.32;;;29.70;34.30;;;27.46;39.67;95701.03;5047487;28;20123;-63
2023/07/03 09:39:30;;;;;;;12.73;7.05;;;29.30;34.20;;;27.37;39.38;95692.03;5047431;28;20380;-63
2023/07/03 09:42:06;;;;;;;15.95;7.85;;;29.50;34.20;;;27.31;39.31;95683.25;5031587;28;20064;-63
2023/07/03 09:44:32;;;;;;;17.60;7.82;;;29.20;35.20;;;27.23;40.04;95711.00;5016532;28;20040;-63
2023/07/03 09:46:58;;;;;;;13.15;7.20;;;29.00;35.10;;;27.04;40.85;95705.75;5000632;28;20033;-63
2023/07/03 09:49:28;;;;;;;12.45;7.63;;;28.60;35.90;;;27.09;41.30;95710.22;4981023;28;20083;-63
2023/07/03 09:51:56;;;;;;;10.25;7.45;;;29.10;35.80;;;27.05;41.07;95707.34;5001594;28;20029;-63
2023/07/03 09:54:28;;;;;;;11.70;6.80;;;29.00;36.20;;;27.13;38.88;95693.13;5001931;28;20033;-63
2023/07/03 09:56:55;;;;;;;10.10;6.20;;;29.30;34.40;;;27.33;39.91;95701.88;5043531;28;20025;-63
2023/07/03 09:59:23;;;;;;;11.77;6.13;;;29.90;34.20;;;27.64;39.27;95702.78;5016893;28;20063;-63
2023/07/03 10:01:48;;;;;;;8.57;5.28;;;30.70;32.90;;;28.00;39.27;95700.00;5016354;28;20056;-63
2023/07/03 10:04:16;;;;;;;10.55;6.00;;;31.50;32.40;;;28.33;39.18;95697.03;4998462;28;20056;-63
2023/07/03 10:06:53;;;;;;;10.70;6.10;;;31.60;31.90;;;28.42;37.02;95678.91;5011716;28;20068;-63
2023/07/03 10:09:25;;;;;;;9.98;5.80;;;31.00;31.90;;;28.42;38.46;95689.72;5000667;28;20091;-63
2023/07/03 10:12:11;;;;;;;9.02;6.00;;;31.20;31.30;;;28.63;36.63;95669.13;5017244;28;20086;-63